createdAt,value
2023-05-05T00:01:15.837Z,11.30
2023-05-05T00:03:42.745Z,11.58
2023-05-05T00:06:09.527Z,11.61
2023-05-05T00:08:36.187Z,11.47
2023-05-05T00:11:02.791Z,11.54
2023-05-05T00:13:29.484Z,11.72
2023-05-05T00:15:56.157Z,11.86
2023-05-05T00:18:22.940Z,11.83
2023-05-05T00:20:49.744Z,11.85
2023-05-05T00:23:16.791Z,11.85
2023-05-05T00:25:43.551Z,11.97
2023-05-05T00:28:10.406Z,11.98
2023-05-05T00:30:37.558Z,12.09
2023-05-05T00:33:04.386Z,12.00
2023-05-05T00:35:31.261Z,11.95
2023-05-05T00:37:58.266Z,12.09
2023-05-05T00:40:25.405Z,12.04
2023-05-05T00:42:52.339Z,12.22
2023-05-05T00:45:20.221Z,12.06
2023-05-05T00:47:52.851Z,12.14
2023-05-05T00:50:24.106Z,12.07
2023-05-05T00:52:52.976Z,12.03
2023-05-05T00:55:20.130Z,12.09
2023-05-05T00:57:47.736Z,11.96
2023-05-05T01:00:14.644Z,12.03
2023-05-05T01:02:41.494Z,12.07
2023-05-05T01:05:11.322Z,12.05
2023-05-05T01:07:48.495Z,12.01
2023-05-05T01:10:23.415Z,11.88
2023-05-05T01:12:50.198Z,11.76
2023-05-05T01:15:26.606Z,11.57
2023-05-05T01:18:04.601Z,11.40
2023-05-05T01:20:55.412Z,11.01
2023-05-05T01:23:31.021Z,10.92
2023-05-05T01:26:02.650Z,10.79
2023-05-05T01:28:56.678Z,10.55
2023-05-05T01:31:51.947Z,10.52
2023-05-05T01:34:33.027Z,10.50
2023-05-05T01:37:08.283Z,10.52
2023-05-05T01:39:35.155Z,10.53
2023-05-05T01:42:06.419Z,10.40
2023-05-05T01:44:35.104Z,10.47
2023-05-05T01:47:02.717Z,10.30
2023-05-05T01:49:30.899Z,10.06
2023-05-05T01:51:58.928Z,9.86
2023-05-05T01:54:26.336Z,9.63
2023-05-05T01:56:54.486Z,9.50
2023-05-05T01:59:21.767Z,9.33
2023-05-05T02:01:49.061Z,9.32
2023-05-05T02:04:17.984Z,9.20
2023-05-05T02:06:45.420Z,9.11
2023-05-05T02:09:13.060Z,9.00
2023-05-05T02:11:40.607Z,9.00
2023-05-05T02:14:08.078Z,8.97
2023-05-05T02:16:35.673Z,8.90
2023-05-05T02:19:06.276Z,8.90
2023-05-05T02:21:33.895Z,8.87
2023-05-05T02:24:01.361Z,8.97
2023-05-05T02:26:29.537Z,8.93
2023-05-05T02:29:07.453Z,8.98
2023-05-05T02:31:43.061Z,9.03
2023-05-05T02:34:10.977Z,8.97
2023-05-05T02:36:39.970Z,9.01
2023-05-05T02:39:13.426Z,8.89
2023-05-05T02:41:42.724Z,8.80
2023-05-05T02:44:19.342Z,8.70
2023-05-05T02:46:46.145Z,8.61
2023-05-05T02:49:13.096Z,8.54
2023-05-05T02:51:40.035Z,8.56
2023-05-05T02:54:14.423Z,8.45
2023-05-05T02:56:44.587Z,8.24
2023-05-05T02:59:38.272Z,8.15
2023-05-05T03:02:45.498Z,8.11
2023-05-05T03:05:24.073Z,8.02
2023-05-05T03:07:56.145Z,8.07
2023-05-05T03:10:36.449Z,8.10
2023-05-05T03:13:03.282Z,8.00
2023-05-05T03:15:45.165Z,7.98
2023-05-05T03:18:15.523Z,8.06
2023-05-05T03:20:46.500Z,8.08
2023-05-05T03:23:18.306Z,7.99
2023-05-05T03:25:49.433Z,8.02
2023-05-05T03:28:38.842Z,7.94
2023-05-05T03:31:14.286Z,7.92
2023-05-05T03:33:41.096Z,7.86
2023-05-05T03:36:07.903Z,7.82
2023-05-05T03:38:34.810Z,7.82
2023-05-05T03:41:03.308Z,7.76
2023-05-05T03:43:30.952Z,7.70
2023-05-05T03:45:57.921Z,7.64
2023-05-05T03:48:25.145Z,7.60
2023-05-05T03:50:52.978Z,7.61
2023-05-05T03:53:21.430Z,7.56
2023-05-05T03:55:48.914Z,7.59
2023-05-05T03:58:15.562Z,7.58
2023-05-05T04:00:42.434Z,7.63
2023-05-05T04:03:10.848Z,7.64
2023-05-05T04:05:38.005Z,7.65
2023-05-05T04:08:05.054Z,7.80
2023-05-05T04:10:32.147Z,7.95
2023-05-05T04:12:58.954Z,8.12
2023-05-05T04:15:25.846Z,8.38
2023-05-05T04:17:52.756Z,8.59
2023-05-05T04:20:19.465Z,8.99
2023-05-05T04:22:46.305Z,9.16
2023-05-05T04:25:13.805Z,9.22
2023-05-05T04:27:40.531Z,9.17
2023-05-05T04:30:09.426Z,9.17
2023-05-05T04:32:38.375Z,9.01
2023-05-05T04:35:06.466Z,8.92
2023-05-05T04:37:33.156Z,8.92
2023-05-05T04:39:59.990Z,8.84
2023-05-05T04:42:27.249Z,8.82
2023-05-05T04:44:54.205Z,8.88
2023-05-05T04:47:21.176Z,8.71
2023-05-05T04:49:48.308Z,8.60
2023-05-05T04:52:15.033Z,8.55
2023-05-05T04:54:41.767Z,8.49
2023-05-05T04:57:08.510Z,8.37
2023-05-05T04:59:36.513Z,8.25
2023-05-05T05:02:03.363Z,8.24
2023-05-05T05:04:30.046Z,8.32
2023-05-05T05:06:59.117Z,8.44
2023-05-05T05:09:26.266Z,8.52
2023-05-05T05:11:53.356Z,8.81
2023-05-05T05:14:22.073Z,9.81
2023-05-05T05:16:52.771Z,10.76
2023-05-05T05:19:24.333Z,11.58
2023-05-05T05:21:54.058Z,12.03
2023-05-05T05:24:21.634Z,12.43
2023-05-05T05:26:48.446Z,12.89
2023-05-05T05:29:15.188Z,13.03
2023-05-05T05:31:42.486Z,13.33
2023-05-05T05:34:10.749Z,14.00
2023-05-05T05:36:44.413Z,13.95
2023-05-05T05:39:12.106Z,14.34
2023-05-05T05:41:47.909Z,14.84
2023-05-05T05:44:39.485Z,14.89
2023-05-05T05:50:43.799Z,14.52
2023-05-05T05:54:00.971Z,13.64
2023-05-05T05:56:41.579Z,14.29
2023-05-05T06:00:36.892Z,14.35
2023-05-05T06:06:49.195Z,14.34
2023-05-05T06:09:42.346Z,14.35
2023-05-05T06:12:38.656Z,14.32
2023-05-05T06:15:18.077Z,14.66
2023-05-05T06:18:09.379Z,14.92
2023-05-05T06:23:40.773Z,14.86
2023-05-05T06:26:29.178Z,14.97
2023-05-05T06:29:05.254Z,14.79
2023-05-05T06:35:48.713Z,14.68
2023-05-05T06:38:27.674Z,14.56
2023-05-05T06:46:10.050Z,14.68
2023-05-05T06:49:41.545Z,14.76
2023-05-05T06:52:10.666Z,15.02
2023-05-05T06:54:37.251Z,15.68
2023-05-05T06:57:03.923Z,16.29
2023-05-05T06:59:39.238Z,16.52
2023-05-05T07:02:06.789Z,16.08
2023-05-05T07:04:39.373Z,16.13
2023-05-05T07:07:06.221Z,15.90
2023-05-05T07:09:35.381Z,15.59
2023-05-05T07:12:04.142Z,15.70
2023-05-05T07:14:57.158Z,14.92
2023-05-05T07:17:47.996Z,14.36
2023-05-05T07:20:19.292Z,14.00
2023-05-05T07:23:04.394Z,13.67
2023-05-05T07:25:47.063Z,13.19
2023-05-05T07:28:18.410Z,12.97
2023-05-05T07:31:08.809Z,12.72
2023-05-05T07:33:45.906Z,12.31
2023-05-05T07:36:34.056Z,12.19
2023-05-05T07:39:15.066Z,12.45
2023-05-05T07:41:42.873Z,12.44
2023-05-05T07:44:10.088Z,12.34
2023-05-05T07:46:46.650Z,12.49
2023-05-05T07:49:13.629Z,12.60
2023-05-05T07:51:40.509Z,12.79
2023-05-05T07:54:07.404Z,12.43
2023-05-05T07:56:34.453Z,12.57
2023-05-05T07:59:01.551Z,12.74
2023-05-05T08:01:28.369Z,13.07
2023-05-05T08:03:55.049Z,13.17
2023-05-05T08:06:22.030Z,13.36
2023-05-05T08:08:49.189Z,13.23
2023-05-05T08:11:21.893Z,13.46
2023-05-05T08:13:48.909Z,13.18
2023-05-05T08:16:15.921Z,12.66
2023-05-05T08:18:42.916Z,12.59
2023-05-05T08:21:10.432Z,12.61
2023-05-05T08:23:38.299Z,12.63
2023-05-05T08:26:07.808Z,12.60
2023-05-05T08:28:37.685Z,12.39
2023-05-05T08:31:08.131Z,12.59
2023-05-05T08:33:44.633Z,12.37
2023-05-05T08:36:13.820Z,12.49
2023-05-05T08:38:40.729Z,12.43
2023-05-05T08:41:10.191Z,12.45
2023-05-05T08:43:37.350Z,12.49
2023-05-05T08:46:15.297Z,12.94
2023-05-05T08:49:00.173Z,13.17
2023-05-05T08:51:31.261Z,13.25
2023-05-05T08:54:03.652Z,13.82
2023-05-05T08:56:33.966Z,13.98
2023-05-05T08:59:01.886Z,14.24
2023-05-05T09:01:29.117Z,14.32
2023-05-05T09:03:58.000Z,14.55
2023-05-05T09:06:27.132Z,14.38
2023-05-05T09:08:54.463Z,14.69
2023-05-05T09:11:26.516Z,14.82
2023-05-05T09:13:53.345Z,15.04
2023-05-05T09:16:22.190Z,15.23
2023-05-05T09:18:49.236Z,15.01
2023-05-05T09:21:24.795Z,15.18
2023-05-05T09:24:11.527Z,15.21
2023-05-05T09:26:46.306Z,15.10
2023-05-05T09:29:20.339Z,15.09
2023-05-05T09:32:08.293Z,15.41
2023-05-05T09:34:37.374Z,14.94
2023-05-05T09:37:06.668Z,14.94
2023-05-05T09:39:33.409Z,15.24
2023-05-05T09:42:13.523Z,15.30
2023-05-05T09:44:43.242Z,15.54
2023-05-05T09:47:26.188Z,15.44
2023-05-05T09:49:59.056Z,15.62
2023-05-05T09:52:25.974Z,16.00
2023-05-05T09:54:56.999Z,15.99
2023-05-05T09:57:33.621Z,16.43
2023-05-05T10:00:01.545Z,16.48
2023-05-05T10:02:38.972Z,16.23
2023-05-05T10:05:29.977Z,16.32
2023-05-05T10:08:12.785Z,16.66
2023-05-05T10:10:48.970Z,15.96
2023-05-05T10:13:16.328Z,16.23
2023-05-05T10:15:45.215Z,16.46
2023-05-05T10:18:15.028Z,16.30
2023-05-05T10:20:43.730Z,16.42
2023-05-05T10:23:14.719Z,16.73
2023-05-05T10:25:53.447Z,16.97
2023-05-05T10:28:29.745Z,17.22
2023-05-05T10:30:59.122Z,17.34
2023-05-05T10:33:35.363Z,16.95
2023-05-05T10:36:06.551Z,16.90
2023-05-05T10:38:34.271Z,16.81
2023-05-05T10:41:04.770Z,16.81
2023-05-05T10:43:32.153Z,17.21
2023-05-05T10:46:30.475Z,16.70
2023-05-05T10:49:05.310Z,17.04
2023-05-05T10:51:44.170Z,17.28
2023-05-05T10:54:20.380Z,17.34
2023-05-05T10:56:47.354Z,17.55
2023-05-05T10:59:36.193Z,17.83
2023-05-05T11:02:21.445Z,17.61
2023-05-05T11:05:07.099Z,17.82
2023-05-05T11:07:38.740Z,17.86
2023-05-05T11:10:07.005Z,18.13
2023-05-05T11:13:01.984Z,18.15
2023-05-05T11:15:29.171Z,18.55
2023-05-05T11:17:57.269Z,18.59
2023-05-05T11:20:36.827Z,18.59
2023-05-05T11:23:03.527Z,18.71
2023-05-05T11:25:41.030Z,18.72
2023-05-05T11:28:19.657Z,18.71
2023-05-05T11:30:55.938Z,19.00
2023-05-05T11:33:32.702Z,19.58
2023-05-05T11:35:59.430Z,19.77
2023-05-05T11:38:38.522Z,19.52
2023-05-05T11:41:12.278Z,19.46
2023-05-05T11:43:39.899Z,19.87
2023-05-05T11:46:12.272Z,19.93
2023-05-05T11:48:54.630Z,20.49
2023-05-05T11:51:22.673Z,20.30
2023-05-05T11:53:49.891Z,19.98
2023-05-05T11:56:21.973Z,19.79
2023-05-05T11:58:51.495Z,19.55
2023-05-05T12:01:18.270Z,19.63
2023-05-05T12:03:46.213Z,19.73
2023-05-05T12:06:13.186Z,19.42
2023-05-05T12:08:41.272Z,20.03
2023-05-05T12:11:10.493Z,20.00
2023-05-05T12:13:40.153Z,20.20
2023-05-05T12:16:14.475Z,20.17
2023-05-05T12:18:42.729Z,19.99
2023-05-05T12:21:17.667Z,19.95
2023-05-05T12:23:44.658Z,19.46
2023-05-05T12:26:29.015Z,19.17
2023-05-05T12:29:00.049Z,19.55
2023-05-05T12:31:42.453Z,20.11
2023-05-05T12:34:10.433Z,20.16
2023-05-05T12:36:37.654Z,20.33
2023-05-05T12:39:09.332Z,20.24
2023-05-05T12:41:36.306Z,20.36
2023-05-05T12:44:04.418Z,19.82
2023-05-05T12:46:32.027Z,20.10
2023-05-05T12:49:07.084Z,20.12
2023-05-05T12:51:37.961Z,20.44
2023-05-05T12:54:11.770Z,20.46
2023-05-05T12:56:48.709Z,20.69
2023-05-05T12:59:27.756Z,20.64
2023-05-05T13:02:14.277Z,20.42
2023-05-05T13:04:54.429Z,20.30
2023-05-05T13:07:22.207Z,20.59
2023-05-05T13:09:51.458Z,20.59
2023-05-05T13:12:18.719Z,20.78
2023-05-05T13:14:46.722Z,20.96
2023-05-05T13:17:14.499Z,21.15
2023-05-05T13:19:46.413Z,20.85
2023-05-05T13:22:13.601Z,20.95
2023-05-05T13:24:50.521Z,20.91
2023-05-05T13:27:25.519Z,20.54
2023-05-05T13:29:52.194Z,20.64
2023-05-05T13:32:18.951Z,20.53
2023-05-05T13:34:45.711Z,20.68
2023-05-05T13:37:12.597Z,20.71
2023-05-05T13:39:39.343Z,20.82
2023-05-05T13:42:06.060Z,20.76
2023-05-05T13:44:32.743Z,20.82
2023-05-05T13:46:59.414Z,20.68
2023-05-05T13:49:27.020Z,20.49
2023-05-05T13:51:56.207Z,20.17
2023-05-05T13:54:22.876Z,20.26
2023-05-05T13:56:49.542Z,20.18
2023-05-05T13:59:16.167Z,20.07
2023-05-05T14:01:42.846Z,20.22
2023-05-05T14:04:09.559Z,20.20
2023-05-05T14:06:36.478Z,19.99
2023-05-05T14:09:06.501Z,19.80
2023-05-05T14:11:33.526Z,19.83
2023-05-05T14:14:00.214Z,19.88
2023-05-05T14:16:26.869Z,19.79
2023-05-05T14:18:56.246Z,19.71
2023-05-05T14:21:22.928Z,19.71
2023-05-05T14:23:49.637Z,19.51
2023-05-05T14:26:19.955Z,19.38
2023-05-05T14:28:48.956Z,19.52
2023-05-05T14:31:17.505Z,19.36
2023-05-05T14:33:44.147Z,19.34
2023-05-05T14:36:10.864Z,19.24
2023-05-05T14:39:41.821Z,19.33
2023-05-05T14:42:13.988Z,19.15
2023-05-05T14:44:41.486Z,18.85
2023-05-05T14:47:39.871Z,18.73
2023-05-05T14:50:36.764Z,18.37
2023-05-05T14:53:23.289Z,18.18
2023-05-05T14:55:53.694Z,18.19
2023-05-05T14:58:24.873Z,17.89
2023-05-05T15:01:48.611Z,17.72
2023-05-05T15:04:29.631Z,17.63
2023-05-05T15:18:45.173Z,16.32
2023-05-05T15:21:37.868Z,15.05
2023-05-05T15:24:38.415Z,13.86
2023-05-05T15:28:11.423Z,13.48
2023-05-05T15:38:16.126Z,12.78
2023-05-05T15:53:38.024Z,12.22
2023-05-05T16:00:32.884Z,12.35
2023-05-05T16:04:27.311Z,12.26
2023-05-05T16:06:59.849Z,12.27
2023-05-05T16:09:29.564Z,12.39
2023-05-05T16:11:56.222Z,12.27
2023-05-05T16:14:25.114Z,12.33
2023-05-05T16:16:58.543Z,12.48
2023-05-05T16:19:28.398Z,12.45
2023-05-05T16:21:55.312Z,12.41
2023-05-05T16:24:22.184Z,12.45
2023-05-05T16:26:49.020Z,12.42
2023-05-05T16:29:16.584Z,12.48
2023-05-05T16:31:43.313Z,12.50
2023-05-05T16:34:17.343Z,12.40
2023-05-05T16:36:44.526Z,12.20
2023-05-05T16:39:11.960Z,12.16
2023-05-05T16:41:38.617Z,12.04
2023-05-05T16:44:05.316Z,12.01
2023-05-05T16:46:32.054Z,11.95
2023-05-05T16:48:58.740Z,11.92
2023-05-05T16:51:25.331Z,11.92
2023-05-05T16:53:51.958Z,11.99
2023-05-05T16:56:18.653Z,11.95
2023-05-05T16:58:45.314Z,11.94
2023-05-05T17:01:14.289Z,11.90
2023-05-05T17:03:41.285Z,11.86
2023-05-05T17:06:08.011Z,11.87
2023-05-05T17:08:34.830Z,11.88
2023-05-05T17:11:01.565Z,11.80
2023-05-05T17:13:28.216Z,11.90
2023-05-05T17:15:54.888Z,11.90
2023-05-05T17:18:22.704Z,11.93
2023-05-05T17:20:49.700Z,12.05
2023-05-05T17:23:16.698Z,11.89
2023-05-05T17:25:43.525Z,11.88
2023-05-05T17:28:10.189Z,11.84
2023-05-05T17:30:37.667Z,11.82
2023-05-05T17:33:04.423Z,11.86
2023-05-05T17:35:31.146Z,11.83
2023-05-05T17:37:57.783Z,11.74
2023-05-05T17:40:24.438Z,11.60
2023-05-05T17:42:51.100Z,11.70
2023-05-05T17:45:17.762Z,11.73
2023-05-05T17:47:44.475Z,11.82
2023-05-05T17:50:11.371Z,11.72
2023-05-05T17:52:38.076Z,11.81
2023-05-05T17:55:05.082Z,11.81
2023-05-05T17:57:31.709Z,11.82
2023-05-05T17:59:58.310Z,11.94
2023-05-05T18:02:25.259Z,12.00
2023-05-05T18:04:52.027Z,11.90
2023-05-05T18:07:18.640Z,11.89
2023-05-05T18:09:45.289Z,11.81
2023-05-05T18:12:12.214Z,11.80
2023-05-05T18:14:38.903Z,11.67
2023-05-05T18:17:05.883Z,11.59
2023-05-05T18:19:32.696Z,11.53
2023-05-05T18:21:59.390Z,11.47
2023-05-05T18:24:28.970Z,11.40
2023-05-05T18:27:02.966Z,11.31
2023-05-05T18:29:29.610Z,11.26
2023-05-05T18:31:56.349Z,11.29
2023-05-05T18:34:23.304Z,11.30
2023-05-05T18:36:51.278Z,11.18
2023-05-05T18:39:18.017Z,11.15
2023-05-05T18:41:44.719Z,11.13
2023-05-05T18:44:11.485Z,11.17
2023-05-05T18:46:38.122Z,11.19
2023-05-05T18:49:04.871Z,11.17
2023-05-05T18:51:32.188Z,11.16
2023-05-05T18:54:00.125Z,11.15
2023-05-05T18:56:27.012Z,11.08
2023-05-05T18:58:53.760Z,11.09
2023-05-05T19:01:20.743Z,11.02
2023-05-05T19:03:48.129Z,11.03
2023-05-05T19:06:17.604Z,11.03
2023-05-05T19:08:45.557Z,10.99
2023-05-05T19:11:12.556Z,10.95
2023-05-05T19:16:06.071Z,10.88
2023-05-05T19:18:36.408Z,10.86
2023-05-05T19:21:03.114Z,10.82
2023-05-05T19:23:29.794Z,10.80
2023-05-05T19:25:56.411Z,10.79
2023-05-05T19:28:23.066Z,10.75
2023-05-05T19:30:49.802Z,10.74
2023-05-05T19:33:16.626Z,10.76
2023-05-05T19:35:44.263Z,10.71
2023-05-05T19:38:11.320Z,10.71
2023-05-05T19:40:38.933Z,10.70
2023-05-05T19:43:06.103Z,10.70
2023-05-05T19:45:33.759Z,10.70
2023-05-05T19:48:01.742Z,10.73
2023-05-05T19:50:30.375Z,10.70
2023-05-05T19:52:57.960Z,10.72
2023-05-05T19:55:25.017Z,10.70
2023-05-05T19:57:51.916Z,10.76
2023-05-05T20:00:19.855Z,10.73
2023-05-05T20:02:47.439Z,10.70
2023-05-05T20:05:16.420Z,10.69
2023-05-05T20:07:46.910Z,10.69
2023-05-05T20:10:13.954Z,10.72
2023-05-05T20:12:47.642Z,10.75
2023-05-05T20:15:18.656Z,10.78
2023-05-05T20:17:46.846Z,10.77
2023-05-05T20:20:20.348Z,10.76
2023-05-05T20:22:47.911Z,10.76
2023-05-05T20:25:18.237Z,10.73
2023-05-05T20:27:45.882Z,10.64
2023-05-05T20:30:13.130Z,10.59
2023-05-05T20:32:40.069Z,10.46
2023-05-05T20:35:31.882Z,10.45
2023-05-05T20:37:58.491Z,10.53
2023-05-05T20:40:25.513Z,10.55
2023-05-05T20:42:52.236Z,10.56
2023-05-05T20:45:19.431Z,10.57
2023-05-05T20:47:46.428Z,10.58
2023-05-05T20:50:13.514Z,10.56
2023-05-05T20:52:40.224Z,10.56
2023-05-05T20:55:07.246Z,10.49
2023-05-05T20:57:34.138Z,10.43
2023-05-05T21:00:01.165Z,10.29
2023-05-05T21:02:28.381Z,10.23
2023-05-05T21:04:58.329Z,10.15
2023-05-05T21:07:25.281Z,10.08
2023-05-05T21:09:52.551Z,10.20
2023-05-05T21:12:20.582Z,10.37
2023-05-05T21:14:47.217Z,10.45
2023-05-05T21:17:13.884Z,10.50
2023-05-05T21:19:41.216Z,10.56
2023-05-05T21:22:07.825Z,10.61
2023-05-05T21:24:34.412Z,10.59
2023-05-05T21:27:01.075Z,10.66
2023-05-05T21:29:27.857Z,10.70
2023-05-05T21:31:54.632Z,10.73
2023-05-05T21:34:21.333Z,10.75
2023-05-05T21:36:48.014Z,10.76
2023-05-05T21:39:14.641Z,10.77
2023-05-05T21:41:41.341Z,10.81
2023-05-05T21:44:07.929Z,10.80
2023-05-05T21:46:34.628Z,10.82
2023-05-05T21:49:12.790Z,10.82
2023-05-05T21:51:40.365Z,10.84
2023-05-05T21:54:07.226Z,10.81
2023-05-05T21:56:34.745Z,10.78
2023-05-05T21:59:01.483Z,10.76
2023-05-05T22:01:28.268Z,10.70
2023-05-05T22:03:55.214Z,10.69
2023-05-05T22:06:21.998Z,10.72
2023-05-05T22:08:48.738Z,10.66
2023-05-05T22:11:15.796Z,10.69
2023-05-05T22:13:42.465Z,10.69
2023-05-05T22:16:09.886Z,10.75
2023-05-05T22:18:36.629Z,10.74
2023-05-05T22:21:03.345Z,10.66
2023-05-05T22:23:30.075Z,10.68
2023-05-05T22:25:57.235Z,10.63
2023-05-05T22:28:23.885Z,10.60
2023-05-05T22:30:50.704Z,10.64
2023-05-05T22:33:17.360Z,10.67
2023-05-05T22:35:43.998Z,10.60
2023-05-05T22:38:10.716Z,10.59
2023-05-05T22:40:37.350Z,10.63
2023-05-05T22:43:03.954Z,10.57
2023-05-05T22:45:30.592Z,10.61
2023-05-05T22:47:57.290Z,10.58
2023-05-05T22:50:24.053Z,10.66
2023-05-05T22:52:50.917Z,10.63
2023-05-05T22:55:17.640Z,10.58
2023-05-05T22:57:44.360Z,10.57
2023-05-05T23:00:11.251Z,10.59
2023-05-05T23:02:38.498Z,10.57
2023-05-05T23:05:05.574Z,10.61
2023-05-05T23:07:32.330Z,10.60
2023-05-05T23:09:58.993Z,10.56
2023-05-05T23:12:25.660Z,10.52
2023-05-05T23:14:52.501Z,10.47
2023-05-05T23:17:19.599Z,10.58
2023-05-05T23:19:49.883Z,10.49
2023-05-05T23:22:16.552Z,10.47
2023-05-05T23:24:43.195Z,10.47
2023-05-05T23:27:09.820Z,10.44
2023-05-05T23:29:36.449Z,10.53
2023-05-05T23:32:03.087Z,10.39
2023-05-05T23:34:30.600Z,10.34
2023-05-05T23:36:57.469Z,10.28
2023-05-05T23:39:24.206Z,10.25
2023-05-05T23:41:50.821Z,10.25
2023-05-05T23:44:17.564Z,10.27
2023-05-05T23:46:44.250Z,10.16
2023-05-05T23:49:11.141Z,10.16
2023-05-05T23:51:37.812Z,10.10
2023-05-05T23:54:04.507Z,10.19
2023-05-05T23:56:31.158Z,10.11
2023-05-05T23:58:57.855Z,10.09
